YPTN/KTR METAR and TAF weather

Enter ICAO airport designator
Station Type Date Time Source
YPTN METAR 2019/08/22 05:00 UTC NOAA

YPTN 220500Z 11011KT 050V120 CAVOK 31/02 Q1014 NOSIG


Station Type Date Time Source
YPTN Decoded METAR 2019/08/22 05:00 UTC NOAA

Station name not available
Aug 22, 2019 - 01:00 AM EDT / 2019.08.22 0500 UTC
Wind: from the ESE (110 degrees) at 13 MPH (11 KT) (direction variable):0
Visibility: greater than 7 mile(s):0
Temperature: 87 F (31 C)
Dew Point: 35 F (2 C)
Relative Humidity: 15%
Pressure (altimeter): 29.94 in. Hg (1014 hPa)
ob: YPTN 220500Z 11011KT 050V120 CAVOK 31/02 Q1014 NOSIG
cycle: 5

Station Type Date Time Source
YPTN TAF 2019/08/21 18:33 UTC NOAA

TAF YPTN 211723Z 2118/2218 11008KT CAVOK
FM220000 11014KT CAVOK
FM220800 11008KT CAVOK

Example: see airport list